Time;durP1;ratioP1;P1;durP2;ratioP2;P2;SDS_P1;SDS_P2;PMS_P1;PMS_P2;Temp;Humidity;BMP_temperature;BMP_pressure;BME280_temperature;BME280_humidity;BME280_pressure;Samples;Min_cycle;Max_cycle;Signal;HPM_P1;HPM_P2
2023/05/07 00:00:17;;;;;;;27.08;18.42;;;;;;;10.38;100.00;101573.75;4992863;28;20046;-71
2023/05/07 00:02:47;;;;;;;27.02;17.40;;;;;;;11.25;100.00;101572.13;4982012;28;20057;-72
2023/05/07 00:05:14;;;;;;;25.25;17.15;;;;;;;10.73;100.00;101583.16;4973238;28;20051;-72
2023/05/07 00:07:41;;;;;;;26.48;16.92;;;;;;;10.83;100.00;101584.03;4956059;28;20441;-72
2023/05/07 00:10:10;;;;;;;29.67;18.27;;;;;;;11.18;100.00;101586.13;4973921;28;20042;-72
2023/05/07 00:12:37;;;;;;;25.65;17.33;;;;;;;10.83;100.00;101573.28;4972953;28;20077;-72
2023/05/07 00:15:05;;;;;;;27.48;17.27;;;;;;;10.64;100.00;101571.41;4973261;28;20451;-72
2023/05/07 00:17:33;;;;;;;25.88;15.80;;;;;;;11.15;100.00;101569.44;4973537;28;20076;-72
2023/05/07 00:19:59;;;;;;;22.35;16.38;;;;;;;10.86;100.00;101573.00;4971864;28;20494;-72
2023/05/07 00:22:26;;;;;;;24.50;16.77;;;;;;;10.98;100.00;101582.59;4973005;28;20050;-71
2023/05/07 00:24:52;;;;;;;24.65;16.35;;;;;;;11.39;100.00;101588.63;4972193;28;20058;-71
2023/05/07 00:27:19;;;;;;;26.52;16.42;;;;;;;10.83;100.00;101581.34;4973029;28;20050;-71
2023/05/07 00:29:46;;;;;;;25.35;16.90;;;;;;;11.19;100.00;101568.16;4971143;28;20043;-71
2023/05/07 00:32:12;;;;;;;24.50;15.82;;;;;;;11.06;100.00;101579.19;4974452;28;20434;-71
2023/05/07 00:34:40;;;;;;;26.30;16.00;;;;;;;11.02;100.00;101571.56;4976840;28;20057;-68
2023/05/07 00:37:09;;;;;;;21.35;14.45;;;;;;;10.59;100.00;101572.84;4976326;28;20081;-70
2023/05/07 00:39:36;;;;;;;21.23;13.57;;;;;;;11.07;100.00;101577.38;4977433;28;20129;-71
2023/05/07 00:42:02;;;;;;;24.35;14.88;;;;;;;11.05;100.00;101573.97;4976196;28;20137;-68
2023/05/07 00:44:29;;;;;;;21.25;14.90;;;;;;;11.07;100.00;101574.69;4976593;28;20054;-68
2023/05/07 00:46:57;;;;;;;20.90;14.55;;;;;;;10.87;100.00;101580.06;4975793;28;20478;-71
2023/05/07 00:49:38;;;;;;;21.27;14.57;;;;;;;11.51;100.00;101583.94;4975016;28;20082;-69
2023/05/07 00:52:07;;;;;;;19.38;14.13;;;;;;;11.69;100.00;101581.38;4975580;28;20484;-69
2023/05/07 00:54:34;;;;;;;20.05;13.60;;;;;;;11.99;100.00;101571.34;4975285;28;20402;-69
2023/05/07 00:57:03;;;;;;;20.42;14.10;;;;;;;12.28;100.00;101579.25;4975445;28;20051;-69
2023/05/07 00:59:32;;;;;;;19.38;13.18;;;;;;;11.57;100.00;101569.91;4976183;28;20397;-70
2023/05/07 01:01:59;;;;;;;21.85;13.20;;;;;;;11.89;100.00;101571.38;4980096;28;20050;-69
2023/05/07 01:04:26;;;;;;;17.80;12.52;;;;;;;12.00;100.00;101568.50;4994744;28;20565;-70
2023/05/07 01:07:12;;;;;;;19.20;12.82;;;;;;;11.46;100.00;101564.72;4994124;28;20104;-70
2023/05/07 01:09:40;;;;;;;22.17;12.00;;;;;;;11.91;100.00;101572.09;4995142;28;20506;-70
2023/05/07 01:12:08;;;;;;;17.98;12.15;;;;;;;12.06;100.00;101578.66;4993815;28;20080;-70
2023/05/07 01:14:34;;;;;;;19.05;13.23;;;;;;;11.25;100.00;101574.81;4994412;28;20046;-70
2023/05/07 01:17:01;;;;;;;21.30;12.85;;;;;;;11.26;100.00;101571.13;4994051;28;20046;-70
2023/05/07 01:19:30;;;;;;;20.25;13.43;;;;;;;10.95;100.00;101579.34;4994885;28;20054;-69
2023/05/07 01:22:07;;;;;;;20.90;14.23;;;;;;;10.70;100.00;101568.19;4994369;28;20133;-70
2023/05/07 01:24:36;;;;;;;19.00;13.18;;;;;;;10.68;100.00;101572.00;4993456;28;22243;-69
2023/05/07 01:27:02;;;;;;;23.42;14.85;;;;;;;10.93;100.00;101575.97;4993349;28;20057;-70
2023/05/07 01:29:29;;;;;;;23.40;14.07;;;;;;;10.56;100.00;101568.59;4994502;28;20064;-70
2023/05/07 01:32:01;;;;;;;22.70;14.02;;;;;;;11.35;100.00;101578.34;4994120;28;20100;-69
2023/05/07 01:34:31;;;;;;;23.15;13.85;;;;;;;11.16;100.00;101568.44;4993444;28;20070;-70
2023/05/07 01:36:59;;;;;;;21.20;13.52;;;;;;;11.56;100.00;101578.13;4994794;28;20046;-70
2023/05/07 01:39:27;;;;;;;24.13;13.98;;;;;;;11.07;100.00;101575.53;4993627;28;20050;-70
2023/05/07 01:41:56;;;;;;;21.05;14.15;;;;;;;10.56;100.00;101565.06;4994927;28;20052;-70
2023/05/07 01:44:23;;;;;;;23.23;14.73;;;;;;;10.55;100.00;101572.28;4995008;28;20050;-70
2023/05/07 01:46:50;;;;;;;20.50;12.95;;;;;;;11.42;100.00;101574.91;4994095;28;20065;-70
2023/05/07 01:49:16;;;;;;;20.20;13.48;;;;;;;11.19;100.00;101578.91;4994959;28;20073;-69
2023/05/07 01:51:43;;;;;;;21.15;14.45;;;;;;;10.78;100.00;101585.41;4995597;28;20122;-70
2023/05/07 01:54:10;;;;;;;22.38;15.15;;;;;;;11.12;100.00;101577.78;4994549;28;20074;-68
2023/05/07 01:56:36;;;;;;;23.45;13.70;;;;;;;11.05;100.00;101582.88;4994703;28;20046;-70
2023/05/07 01:59:03;;;;;;;24.92;13.68;;;;;;;11.02;100.00;101585.84;4993412;28;20050;-70
2023/05/07 02:01:29;;;;;;;20.85;12.82;;;;;;;11.18;100.00;101590.66;4993547;28;20054;-70
2023/05/07 02:03:56;;;;;;;19.55;13.15;;;;;;;10.58;100.00;101587.22;4974761;28;20039;-70
2023/05/07 02:06:23;;;;;;;18.13;12.82;;;;;;;10.78;100.00;101590.78;4975553;28;20047;-70
2023/05/07 02:08:49;;;;;;;20.95;13.43;;;;;;;11.08;100.00;101587.13;4974753;28;20054;-71
2023/05/07 02:11:16;;;;;;;18.48;12.95;;;;;;;10.93;100.00;101587.56;4974745;28;20517;-70
2023/05/07 02:13:42;;;;;;;20.20;13.00;;;;;;;10.82;100.00;101589.50;4975320;28;20082;-70
2023/05/07 02:16:09;;;;;;;17.70;12.40;;;;;;;10.88;100.00;101597.00;4975011;28;20054;-70
2023/05/07 02:18:35;;;;;;;21.05;13.32;;;;;;;11.09;100.00;101595.03;4971083;28;20125;-72
2023/05/07 02:21:02;;;;;;;17.88;12.68;;;;;;;11.39;100.00;101593.16;4971052;28;20043;-72
2023/05/07 02:23:28;;;;;;;22.40;12.93;;;;;;;11.64;100.00;101605.97;4970811;28;20055;-72
2023/05/07 02:25:55;;;;;;;19.50;12.30;;;;;;;11.57;100.00;101604.00;4970945;28;20050;-72
2023/05/07 02:28:21;;;;;;;18.45;13.05;;;;;;;10.90;100.00;101595.03;4966783;28;20061;-72
2023/05/07 02:30:48;;;;;;;21.77;13.32;;;;;;;11.04;100.00;101602.66;4971592;28;20051;-72
2023/05/07 02:33:14;;;;;;;17.65;12.45;;;;;;;11.60;100.00;101609.09;4971571;28;20556;-72
2023/05/07 02:35:41;;;;;;;17.30;12.60;;;;;;;11.20;100.00;101600.25;4971282;28;20130;-72
2023/05/07 02:38:10;;;;;;;18.98;13.52;;;;;;;11.16;100.00;101598.00;4971038;28;20047;-72
2023/05/07 02:40:39;;;;;;;18.45;13.20;;;;;;;11.30;100.00;101602.06;4971403;28;20054;-72
2023/05/07 02:43:06;;;;;;;20.17;12.35;;;;;;;11.54;100.00;101602.44;4971816;28;20054;-72
2023/05/07 02:45:33;;;;;;;20.00;12.98;;;;;;;11.53;100.00;101605.28;4972056;28;20085;-72
2023/05/07 02:48:00;;;;;;;14.23;11.85;;;;;;;11.00;100.00;101606.63;4971567;28;20061;-73
2023/05/07 02:50:26;;;;;;;23.25;12.48;;;;;;;10.89;100.00;101604.06;4971253;28;20078;-72
2023/05/07 02:52:53;;;;;;;23.70;13.40;;;;;;;10.79;100.00;101609.44;4971056;28;20051;-72
2023/05/07 02:55:20;;;;;;;19.67;12.70;;;;;;;10.93;100.00;101600.97;4974035;28;20057;-73
2023/05/07 02:57:46;;;;;;;28.20;16.77;;;;;;;10.65;100.00;101616.06;4978392;28;20046;-75
2023/05/07 03:00:18;;;;;;;24.60;15.85;;;;;;;11.21;100.00;101620.75;4978381;28;20067;-74
2023/05/07 03:02:45;;;;;;;23.90;16.42;;;;;;;11.20;100.00;101619.03;4984636;28;20050;-72
2023/05/07 03:05:12;;;;;;;23.17;15.75;;;;;;;11.08;100.00;101619.34;4990447;28;20439;-72
2023/05/07 03:07:39;;;;;;;18.90;13.43;;;;;;;10.86;100.00;101621.31;4990752;28;20101;-72
2023/05/07 03:10:06;;;;;;;20.80;13.30;;;;;;;10.72;100.00;101625.25;4990501;28;20062;-72
2023/05/07 03:12:32;;;;;;;20.17;12.82;;;;;;;10.80;100.00;101626.41;4990349;28;20054;-72
2023/05/07 03:14:59;;;;;;;21.58;12.70;;;;;;;10.73;100.00;101620.75;4990371;28;20475;-72
2023/05/07 03:17:25;;;;;;;17.42;12.73;;;;;;;11.19;100.00;101619.19;4984194;28;20133;-73
2023/05/07 03:19:52;;;;;;;20.13;13.32;;;;;;;10.91;100.00;101619.06;4984692;28;20275;-72
2023/05/07 03:22:18;;;;;;;18.20;12.00;;;;;;;11.33;100.00;101626.81;4990871;28;20085;-72
2023/05/07 03:24:45;;;;;;;18.33;12.95;;;;;;;11.81;100.00;101631.28;4993112;28;20129;-72
2023/05/07 03:27:11;;;;;;;18.65;13.25;;;;;;;11.55;100.00;101620.28;4993032;28;20061;-72
2023/05/07 03:29:38;;;;;;;19.35;11.38;;;;;;;11.22;100.00;101627.81;4993287;28;20060;-72
2023/05/07 03:32:05;;;;;;;17.77;12.15;;;;;;;11.63;100.00;101628.47;4993496;28;20070;-72
2023/05/07 03:34:32;;;;;;;17.33;11.50;;;;;;;11.19;100.00;101628.09;4993004;28;20048;-72
2023/05/07 03:36:58;;;;;;;22.63;11.68;;;;;;;10.59;100.00;101626.50;4992168;28;20396;-72
2023/05/07 03:39:25;;;;;;;15.20;11.07;;;;;;;11.26;100.00;101627.53;4991787;28;20050;-72
2023/05/07 03:41:51;;;;;;;18.20;11.85;;;;;;;11.22;100.00;101627.81;4992283;28;20046;-71
2023/05/07 03:44:18;;;;;;;19.95;11.85;;;;;;;10.95;100.00;101636.56;4997933;28;20046;-75
2023/05/07 03:46:44;;;;;;;19.88;12.02;;;;;;;10.78;100.00;101639.09;4979416;28;20384;-74
2023/05/07 03:49:11;;;;;;;14.80;11.30;;;;;;;10.76;100.00;101643.78;4971184;28;20046;-75
2023/05/07 03:51:38;;;;;;;21.10;11.82;;;;;;;11.58;100.00;101646.84;4999000;28;20054;-74
2023/05/07 03:54:04;;;;;;;18.27;12.18;;;;;;;11.00;100.00;101646.91;4997916;28;20077;-75
2023/05/07 03:56:31;;;;;;;15.65;11.35;;;;;;;11.26;100.00;101655.25;4997696;28;20054;-68
2023/05/07 03:58:57;;;;;;;19.33;12.20;;;;;;;11.40;100.00;101651.28;4993803;28;20133;-70
2023/05/07 04:01:24;;;;;;;18.25;11.73;;;;;;;11.30;100.00;101645.91;4997065;28;20518;-70
2023/05/07 04:03:51;;;;;;;19.33;12.07;;;;;;;10.89;100.00;101639.81;4977889;28;20043;-70
2023/05/07 04:06:18;;;;;;;29.27;12.60;;;;;;;10.23;100.00;101640.34;4977683;28;20062;-68
2023/05/07 04:08:44;;;;;;;17.42;11.80;;;;;;;10.15;100.00;101642.00;4977547;28;20049;-69
2023/05/07 04:11:11;;;;;;;17.52;12.30;;;;;;;10.59;100.00;101639.94;4977315;28;20051;-70
2023/05/07 04:13:37;;;;;;;16.73;12.00;;;;;;;10.97;100.00;101639.13;4977597;28;20058;-70
2023/05/07 04:16:05;;;;;;;20.42;12.38;;;;;;;11.25;100.00;101647.34;4976972;28;20507;-69
2023/05/07 04:18:31;;;;;;;19.98;11.50;;;;;;;10.88;100.00;101648.88;4978105;28;20077;-69
2023/05/07 04:20:58;;;;;;;19.17;11.77;;;;;;;11.11;100.00;101646.75;4969780;28;20126;-69
2023/05/07 04:23:24;;;;;;;18.85;12.07;;;;;;;10.94;100.00;101655.53;4977325;28;20113;-69
2023/05/07 04:25:51;;;;;;;17.63;11.25;;;;;;;11.65;100.00;101661.41;4977016;28;20043;-69
2023/05/07 04:28:18;;;;;;;17.58;11.45;;;;;;;11.38;100.00;101656.81;4977049;28;20058;-70
2023/05/07 04:30:44;;;;;;;18.33;11.02;;;;;;;10.96;100.00;101658.88;4976716;28;20066;-70
2023/05/07 04:33:11;;;;;;;15.40;11.10;;;;;;;11.71;100.00;101672.63;4976648;28;20065;-71
2023/05/07 04:35:38;;;;;;;18.27;12.05;;;;;;;11.21;100.00;101669.09;4975731;28;20130;-70
2023/05/07 04:38:04;;;;;;;16.38;11.38;;;;;;;10.99;100.00;101672.03;4976276;28;20042;-71
2023/05/07 04:40:31;;;;;;;19.40;10.73;;;;;;;11.07;100.00;101672.22;4976711;28;20121;-70
2023/05/07 04:42:58;;;;;;;17.83;10.38;;;;;;;11.07;100.00;101679.44;4973782;28;20070;-75
2023/05/07 04:45:24;;;;;;;17.63;10.43;;;;;;;10.82;100.00;101678.09;4974880;28;20129;-76
2023/05/07 04:47:51;;;;;;;15.10;10.48;;;;;;;11.41;100.00;101675.31;4975358;28;20053;-75
2023/05/07 04:50:19;;;;;;;14.13;9.90;;;;;;;10.55;100.00;101673.34;4973922;28;20047;-76
2023/05/07 04:52:45;;;;;;;16.13;10.10;;;;;;;11.02;100.00;101678.97;4973546;28;20134;-76
2023/05/07 04:55:12;;;;;;;15.90;10.55;;;;;;;11.42;100.00;101677.00;4975242;28;20057;-75
2023/05/07 04:57:40;;;;;;;16.10;10.65;;;;;;;11.14;100.00;101688.63;4974384;28;20043;-75
2023/05/07 05:00:08;;;;;;;17.15;9.85;;;;;;;11.35;100.00;101681.25;4974670;28;20522;-75
2023/05/07 05:02:35;;;;;;;14.65;9.93;;;;;;;11.36;100.00;101682.94;4982726;28;20047;-74
2023/05/07 05:05:02;;;;;;;14.15;10.10;;;;;;;11.75;100.00;101691.00;4974322;28;20078;-74
2023/05/07 05:07:29;;;;;;;15.50;10.23;;;;;;;11.26;100.00;101698.22;4993524;28;20050;-76
2023/05/07 05:09:55;;;;;;;11.90;9.43;;;;;;;11.44;100.00;101695.66;4994994;28;20046;-75
2023/05/07 05:12:22;;;;;;;13.43;9.25;;;;;;;11.37;100.00;101698.06;4994988;28;20141;-75
2023/05/07 05:14:48;;;;;;;13.95;9.35;;;;;;;11.89;100.00;101703.13;4995038;28;20214;-75
2023/05/07 05:17:15;;;;;;;12.95;9.23;;;;;;;12.07;99.02;101703.22;4995215;28;20054;-75
2023/05/07 05:19:41;;;;;;;13.73;9.10;;;;;;;10.94;100.00;101707.38;4976301;28;20057;-75
2023/05/07 05:22:08;;;;;;;15.45;9.48;;;;;;;10.96;100.00;101702.72;4989774;28;20081;-75
2023/05/07 05:24:35;;;;;;;11.85;8.20;;;;;;;10.81;100.00;101698.72;4986228;28;20049;-74
2023/05/07 05:27:02;;;;;;;14.60;9.23;;;;;;;11.20;100.00;101699.63;4994401;28;20042;-76
2023/05/07 05:29:28;;;;;;;15.20;8.77;;;;;;;11.13;100.00;101703.00;5005168;28;20065;-70
2023/05/07 05:31:55;;;;;;;13.15;8.45;;;;;;;11.62;100.00;101701.16;4977986;28;20145;-69
2023/05/07 05:34:22;;;;;;;11.52;8.90;;;;;;;12.03;99.38;101702.69;4993838;28;20117;-69
2023/05/07 05:36:49;;;;;;;16.33;8.43;;;;;;;12.12;95.10;101706.34;4997024;28;20069;-71
2023/05/07 05:39:15;;;;;;;15.93;8.15;;;;;;;11.59;96.98;101704.16;4962718;28;20496;-71
2023/05/07 05:41:42;;;;;;;15.00;8.85;;;;;;;11.77;99.10;101698.94;4990102;28;20045;-72
2023/05/07 05:44:09;;;;;;;25.98;10.70;;;;;;;12.18;95.12;101708.47;4989865;28;20411;-71
2023/05/07 05:46:35;;;;;;;12.95;9.20;;;;;;;11.72;96.92;101707.41;4990368;28;20050;-73
2023/05/07 05:49:02;;;;;;;14.00;8.20;;;;;;;11.71;97.58;101710.25;4990552;28;20050;-73
2023/05/07 05:51:29;;;;;;;13.75;8.95;;;;;;;12.17;94.96;101712.13;4989956;28;20081;-73
2023/05/07 05:53:55;;;;;;;11.40;8.73;;;;;;;12.32;90.36;101720.59;4991079;28;20129;-72
2023/05/07 05:56:22;;;;;;;10.70;7.53;;;;;;;11.75;94.34;101709.81;4973744;28;20054;-72
2023/05/07 05:58:48;;;;;;;13.18;8.95;;;;;;;11.62;97.97;101715.47;4989658;28;20053;-72
2023/05/07 06:01:15;;;;;;;11.57;7.85;;;;;;;12.46;90.23;101721.94;5000819;28;20061;-73
2023/05/07 06:03:41;;;;;;;11.95;8.75;;;;;;;12.01;91.72;101720.81;4980103;28;20117;-75
2023/05/07 06:06:09;;;;;;;13.90;8.43;;;;;;;12.51;88.45;101727.72;4978902;28;20047;-74
2023/05/07 06:08:36;;;;;;;10.38;7.13;;;;;;;12.24;89.88;101715.91;4979001;28;20050;-75
2023/05/07 06:11:03;;;;;;;14.27;7.57;;;;;;;11.48;96.13;101715.03;4978547;28;20051;-74
2023/05/07 06:13:29;;;;;;;13.65;7.47;;;;;;;11.70;95.92;101712.09;4979495;28;20051;-75
2023/05/07 06:15:56;;;;;;;12.23;7.25;;;;;;;12.47;90.38;101718.25;4971529;28;20114;-72
2023/05/07 06:18:22;;;;;;;11.80;7.43;;;;;;;11.77;93.55;101718.59;4970335;28;20126;-72
2023/05/07 06:20:49;;;;;;;14.48;7.57;;;;;;;12.46;87.47;101719.25;4970906;28;20049;-73
2023/05/07 06:23:15;;;;;;;9.30;6.97;;;;;;;12.17;87.32;101725.56;4971030;28;20115;-71
2023/05/07 06:25:48;;;;;;;13.05;7.43;;;;;;;11.59;93.12;101722.97;4971189;28;20574;-71
2023/05/07 06:28:15;;;;;;;11.43;7.43;;;;;;;12.36;88.42;101733.59;4971250;28;20518;-71
2023/05/07 06:30:41;;;;;;;10.45;7.10;;;;;;;12.55;86.11;101734.50;4970467;28;20050;-72
2023/05/07 06:33:08;;;;;;;14.57;6.90;;;;;;;12.28;86.08;101743.38;4969994;28;20117;-73
2023/05/07 06:35:34;;;;;;;12.93;7.55;;;;;;;11.84;89.01;101738.53;4970468;28;20047;-73
2023/05/07 06:38:01;;;;;;;10.70;7.65;;;;;;;12.20;90.10;101744.13;4970912;28;20051;-73
2023/05/07 06:40:27;;;;;;;9.82;7.25;;;;;;;12.59;86.00;101744.84;4971337;28;20047;-72
2023/05/07 06:42:54;;;;;;;11.57;7.50;;;;;;;13.11;81.67;101755.06;4970415;28;20571;-71
2023/05/07 06:45:20;;;;;;;12.63;7.47;;;;;;;12.71;82.09;101758.94;4971006;28;20054;-72
2023/05/07 06:47:47;;;;;;;12.52;8.25;;;;;;;12.86;82.33;101759.31;4970245;28;20046;-71
2023/05/07 06:50:15;;;;;;;12.65;7.22;;;;;;;13.15;80.58;101764.56;4970989;28;20077;-71
2023/05/07 06:52:42;;;;;;;8.95;6.60;;;;;;;11.72;86.78;101754.94;4970731;28;20130;-72
2023/05/07 06:55:09;;;;;;;15.60;6.97;;;;;;;11.88;88.10;101756.06;4970809;28;20611;-72
2023/05/07 06:57:36;;;;;;;11.63;7.40;;;;;;;12.17;86.90;101758.72;4972290;28;20046;-72
2023/05/07 07:00:04;;;;;;;15.85;7.43;;;;;;;12.62;82.54;101757.13;4974706;28;20070;-71
2023/05/07 07:02:30;;;;;;;15.75;7.10;;;;;;;12.43;86.35;101768.84;4982971;28;20529;-72
2023/05/07 07:04:57;;;;;;;13.20;7.25;;;;;;;11.65;93.27;101763.53;4993487;28;20053;-71
2023/05/07 07:07:23;;;;;;;10.27;6.78;;;;;;;12.00;91.93;101758.59;4993588;28;20600;-72
2023/05/07 07:09:51;;;;;;;17.02;7.63;;;;;;;11.99;89.42;101763.13;4993626;28;20129;-71
2023/05/07 07:12:17;;;;;;;13.20;7.80;;;;;;;11.99;86.53;101755.06;4993836;28;20133;-73
2023/05/07 07:14:44;;;;;;;12.35;6.85;;;;;;;12.67;83.51;101760.25;4966922;28;20074;-72
2023/05/07 07:17:10;;;;;;;13.57;7.03;;;;;;;12.17;86.94;101755.16;4992849;28;20057;-72
2023/05/07 07:19:38;;;;;;;8.45;6.70;;;;;;;12.10;88.64;101751.34;4993828;28;20053;-73
2023/05/07 07:22:04;;;;;;;12.77;6.90;;;;;;;12.97;79.66;101758.25;4993238;28;20046;-71
2023/05/07 07:24:31;;;;;;;9.73;5.60;;;;;;;13.15;76.70;101769.09;4994121;28;20042;-74
2023/05/07 07:26:57;;;;;;;8.40;5.32;;;;;;;13.38;73.79;101764.94;4994500;28;20044;-75
2023/05/07 07:29:26;;;;;;;8.45;5.50;;;;;;;13.32;73.58;101773.66;4992724;28;20054;-75
2023/05/07 07:31:52;;;;;;;8.05;5.88;;;;;;;13.62;73.22;101767.03;4993359;28;20141;-74
2023/05/07 07:34:19;;;;;;;8.77;5.47;;;;;;;14.28;70.13;101768.41;4992998;28;20046;-75
2023/05/07 07:36:46;;;;;;;11.32;6.18;;;;;;;14.44;68.46;101756.88;4993619;28;20436;-74
2023/05/07 07:39:12;;;;;;;10.30;6.00;;;;;;;13.44;71.78;101755.41;4993008;28;20053;-76
2023/05/07 07:41:39;;;;;;;8.63;5.90;;;;;;;13.83;71.41;101750.53;4993329;28;20053;-75
2023/05/07 07:44:07;;;;;;;8.93;6.13;;;;;;;15.17;67.68;101756.34;4971770;28;20070;-73
2023/05/07 07:46:34;;;;;;;10.05;5.88;;;;;;;14.29;67.57;101753.91;4990003;28;20395;-75
2023/05/07 07:49:01;;;;;;;12.48;5.50;;;;;;;14.56;67.64;101747.47;4994168;28;20105;-75
2023/05/07 07:51:28;;;;;;;9.20;5.15;;;;;;;15.32;65.04;101748.41;4993309;28;20074;-77
2023/05/07 07:53:54;;;;;;;7.07;5.07;;;;;;;15.08;63.96;101760.84;5013264;28;20539;-75
2023/05/07 07:56:21;;;;;;;7.50;3.85;;;;;;;15.05;63.47;101750.41;5017390;28;20050;-73
2023/05/07 07:58:47;;;;;;;7.97;4.50;;;;;;;15.97;60.53;101751.16;5015690;28;20126;-75
2023/05/07 08:09:40;;;;;;;5.85;4.00;;;;;;;17.95;52.51;101748.16;5483140;23;20034;-72
2023/05/07 08:12:07;;;;;;;6.55;3.88;;;;;;;18.47;52.19;101754.63;4991707;28;20711;-72
2023/05/07 08:14:36;;;;;;;5.53;3.28;;;;;;;18.59;50.46;101752.28;4992554;28;20491;-72
2023/05/07 08:17:02;;;;;;;6.05;3.17;;;;;;;18.54;50.31;101745.53;4991887;28;20057;-72
2023/05/07 08:19:29;;;;;;;4.80;3.17;;;;;;;16.80;52.58;101741.84;4978923;28;20088;-73
2023/05/07 08:21:56;;;;;;;4.65;2.78;;;;;;;18.25;49.78;101742.81;4978407;28;20050;-72
2023/05/07 08:24:22;;;;;;;7.90;3.70;;;;;;;17.62;50.52;101746.78;4990799;28;20054;-72
2023/05/07 08:26:49;;;;;;;5.50;3.25;;;;;;;17.02;52.23;101746.44;4992057;28;20399;-72
2023/05/07 08:29:16;;;;;;;5.47;3.33;;;;;;;17.55;50.38;101747.50;4991167;28;20054;-73
2023/05/07 08:31:42;;;;;;;6.88;4.03;;;;;;;17.76;50.73;101748.69;4991804;28;20062;-72
2023/05/07 08:34:09;;;;;;;7.43;3.72;;;;;;;16.74;51.23;101748.78;4991479;28;20418;-72
2023/05/07 08:36:35;;;;;;;7.38;3.70;;;;;;;15.85;53.98;101742.56;4974182;28;20051;-72
2023/05/07 08:39:02;;;;;;;7.78;3.95;;;;;;;16.80;53.14;101748.09;4991988;28;20456;-71
2023/05/07 08:41:29;;;;;;;5.35;3.47;;;;;;;15.78;54.46;101743.41;4991955;28;20085;-72
2023/05/07 08:43:59;;;;;;;7.22;3.40;;;;;;;15.64;55.66;101748.50;4991043;28;21184;-70
2023/05/07 08:46:31;;;;;;;7.15;2.97;;;;;;;14.98;56.93;101752.03;4991270;28;20406;-71
2023/05/07 08:48:58;;;;;;;5.63;3.80;;;;;;;16.05;54.66;101748.44;4991249;28;20077;-71
2023/05/07 08:51:25;;;;;;;4.82;3.33;;;;;;;15.95;55.24;101747.78;4990580;28;20133;-71
2023/05/07 08:53:52;;;;;;;8.13;3.83;;;;;;;15.78;55.86;101748.81;4991045;28;20462;-71
2023/05/07 08:56:20;;;;;;;6.90;3.05;;;;;;;16.75;53.41;101744.22;4991164;28;20097;-71
2023/05/07 08:58:48;;;;;;;6.32;2.67;;;;;;;15.63;54.97;101743.22;4990433;28;20145;-72
2023/05/07 09:01:16;;;;;;;4.75;3.25;;;;;;;16.48;53.39;101749.03;4991471;28;20054;-73
2023/05/07 09:03:46;;;;;;;5.32;2.60;;;;;;;16.13;53.25;101748.44;4990850;28;20491;-72
2023/05/07 09:06:13;;;;;;;3.55;2.42;;;;;;;17.34;49.62;101764.44;4990798;28;20096;-73
2023/05/07 09:08:39;;;;;;;4.35;2.65;;;;;;;18.19;47.85;101757.97;4991109;28;20050;-71
2023/05/07 09:11:06;;;;;;;4.57;2.50;;;;;;;18.21;47.36;101760.53;4991237;28;20042;-71
2023/05/07 09:13:32;;;;;;;3.28;2.28;;;;;;;18.75;47.11;101746.63;4990482;28;20042;-71
2023/05/07 09:16:09;;;;;;;3.63;1.90;;;;;;;18.23;46.75;101751.13;4991248;28;20050;-71
2023/05/07 09:18:41;;;;;;;6.35;2.28;;;;;;;18.76;44.76;101756.50;4990215;28;20058;-71
2023/05/07 09:21:10;;;;;;;5.97;2.05;;;;;;;18.44;47.08;101766.69;4988117;28;20053;-72
2023/05/07 09:23:36;;;;;;;4.70;2.47;;;;;;;19.47;45.51;101754.81;4991451;28;20053;-71
2023/05/07 09:26:04;;;;;;;4.68;2.30;;;;;;;19.60;44.14;101750.53;4990835;28;20046;-72
2023/05/07 09:28:30;;;;;;;6.80;2.60;;;;;;;18.63;45.58;101756.31;4990814;28;20050;-72
2023/05/07 09:30:59;;;;;;;5.55;2.58;;;;;;;16.56;48.35;101748.19;4991125;28;20069;-72
2023/05/07 09:33:27;;;;;;;4.10;2.40;;;;;;;16.61;50.11;101751.25;4989088;28;20054;-72
2023/05/07 09:35:53;;;;;;;6.38;2.30;;;;;;;17.43;49.15;101748.94;4991903;28;20046;-72
2023/05/07 09:38:21;;;;;;;4.82;2.35;;;;;;;16.90;50.22;101751.44;4985025;28;20054;-71
2023/05/07 09:41:04;;;;;;;3.45;2.15;;;;;;;19.08;46.18;101762.56;4979479;28;20057;-71
2023/05/07 09:43:36;;;;;;;3.17;2.00;;;;;;;19.27;44.80;101764.63;4989852;28;20046;-70
2023/05/07 09:46:06;;;;;;;4.40;2.30;;;;;;;19.40;44.04;101764.78;4989015;28;20042;-71
2023/05/07 09:48:38;;;;;;;4.43;2.10;;;;;;;19.11;43.65;101767.63;4989697;28;20054;-70
2023/05/07 09:51:14;;;;;;;4.18;2.50;;;;;;;18.57;45.13;101765.22;4972166;28;20074;-72
2023/05/07 09:53:41;;;;;;;3.00;2.00;;;;;;;18.52;45.05;101773.94;4970041;28;20059;-71
2023/05/07 09:56:09;;;;;;;3.25;2.00;;;;;;;18.79;45.21;101773.25;4972762;28;20126;-72
2023/05/07 09:58:39;;;;;;;5.63;2.58;;;;;;;18.06;45.90;101777.59;4971962;28;20043;-69
2023/05/07 10:01:06;;;;;;;7.32;2.67;;;;;;;17.20;48.27;101769.72;4971855;28;20077;-72
2023/05/07 10:03:34;;;;;;;3.97;2.40;;;;;;;16.97;49.37;101775.97;4970134;28;20050;-69
2023/05/07 10:06:02;;;;;;;3.63;2.28;;;;;;;17.94;48.33;101781.78;4975719;28;20077;-71
2023/05/07 10:08:30;;;;;;;8.82;2.80;;;;;;;17.95;47.96;101772.59;4974882;28;20050;-71
2023/05/07 10:10:56;;;;;;;4.07;2.60;;;;;;;18.75;46.41;101773.81;4974684;28;20056;-71
2023/05/07 10:13:24;;;;;;;3.92;2.35;;;;;;;17.90;47.60;101777.75;4971933;28;20138;-73
2023/05/07 10:15:51;;;;;;;4.13;2.05;;;;;;;18.83;46.51;101776.44;4971358;28;20133;-75
2023/05/07 10:18:22;;;;;;;5.65;2.15;;;;;;;18.25;45.30;101759.13;4971937;28;20049;-72
2023/05/07 10:20:52;;;;;;;4.35;2.40;;;;;;;17.44;46.92;101772.34;4971594;28;20043;-73
2023/05/07 10:23:24;;;;;;;6.38;2.65;;;;;;;16.94;48.07;101773.59;4971163;28;20419;-73
2023/05/07 10:25:52;;;;;;;5.32;2.47;;;;;;;17.37;47.92;101779.47;4971675;28;20042;-74
2023/05/07 10:28:28;;;;;;;5.22;2.22;;;;;;;17.07;48.37;101779.31;4970689;28;20518;-73
2023/05/07 10:31:00;;;;;;;6.15;2.20;;;;;;;18.39;46.07;101787.31;4970808;28;20078;-74
2023/05/07 10:33:30;;;;;;;3.80;2.13;;;;;;;18.24;46.18;101781.88;4974519;28;20050;-74
2023/05/07 10:36:00;;;;;;;5.25;2.00;;;;;;;19.39;44.27;101779.44;4975748;28;20053;-73
2023/05/07 10:38:27;;;;;;;4.47;2.17;;;;;;;17.83;46.27;101780.34;4975922;28;20061;-75
2023/05/07 10:40:54;;;;;;;3.55;2.25;;;;;;;18.98;44.26;101782.72;4975365;28;20400;-74
2023/05/07 10:43:21;;;;;;;5.93;2.05;;;;;;;18.46;44.87;101782.81;4975969;28;20050;-75
2023/05/07 11:13:02;;;;;;;3.70;1.40;;;;;;;20.65;40.32;101774.19;5237308;23;20499;-72
2023/05/07 11:15:37;;;;;;;2.75;1.50;;;;;;;21.37;39.74;101765.47;4971414;28;20051;-63
2023/05/07 11:18:04;;;;;;;3.40;1.65;;;;;;;20.65;39.40;101768.75;4973704;28;20510;-63
2023/05/07 11:20:46;;;;;;;2.63;1.50;;;;;;;20.85;41.29;101766.97;4973778;28;20488;-64
2023/05/07 11:23:40;;;;;;;;;;;;;;;20.26;41.54;101759.28;4955469;29;20549;-64
2023/05/07 11:26:11;;;;;;;3.35;1.60;;;;;;;21.07;38.84;101770.38;4930384;29;19926;-66
2023/05/07 11:28:40;;;;;;;3.97;1.40;;;;;;;20.80;38.38;101761.28;4973931;28;20053;-63
2023/05/07 11:31:07;;;;;;;8.55;1.77;;;;;;;19.54;40.21;101759.47;4967897;28;20098;-65
2023/05/07 11:33:34;;;;;;;3.03;1.80;;;;;;;18.38;43.49;101763.91;4955258;29;20050;-66
2023/05/07 11:36:05;;;;;;;4.07;1.63;;;;;;;18.21;43.20;101761.34;4954474;29;20054;-64
2023/05/07 11:38:35;;;;;;;2.00;1.38;;;;;;;17.08;45.82;101753.03;4955428;29;20419;-63
2023/05/07 11:41:04;;;;;;;5.30;1.23;;;;;;;16.89;46.72;101757.03;4955284;29;20139;-65
2023/05/07 11:43:32;;;;;;;6.40;1.85;;;;;;;16.61;47.18;101745.81;4954723;28;20075;-63
2023/05/07 11:46:10;;;;;;;4.00;2.30;;;;;;;16.47;47.78;101760.91;4952866;29;20074;-63
2023/05/07 11:48:37;;;;;;;2.33;1.77;;;;;;;16.92;46.49;101756.69;4953862;29;20050;-71